createdAt,value
2023-05-01T00:02:42.679Z,12.71
2023-05-01T00:05:46.560Z,12.67
2023-05-01T00:08:49.156Z,12.56
2023-05-01T00:11:51.856Z,12.53
2023-05-01T00:14:57.418Z,12.54
2023-05-01T00:18:00.298Z,12.40
2023-05-01T00:21:03.287Z,12.47
2023-05-01T00:24:06.105Z,12.49
2023-05-01T00:27:08.611Z,12.50
2023-05-01T00:30:12.500Z,12.48
2023-05-01T00:33:14.930Z,12.42
2023-05-01T00:36:17.635Z,12.34
2023-05-01T00:39:20.111Z,12.37
2023-05-01T00:42:22.977Z,12.39
2023-05-01T00:45:25.784Z,12.40
2023-05-01T00:48:28.502Z,12.35
2023-05-01T00:51:31.628Z,12.33
2023-05-01T00:54:34.301Z,12.32
2023-05-01T00:57:37.229Z,12.33
2023-05-01T01:00:40.033Z,12.34
2023-05-01T01:03:42.422Z,12.18
2023-05-01T01:07:04.004Z,12.16
2023-05-01T01:10:12.482Z,12.27
2023-05-01T01:13:27.431Z,12.27
2023-05-01T01:16:45.404Z,12.29
2023-05-01T01:20:42.754Z,12.21
2023-05-01T01:24:04.366Z,12.30
2023-05-01T01:27:18.892Z,12.29
2023-05-01T01:30:49.168Z,12.24
2023-05-01T01:34:29.917Z,12.25
2023-05-01T01:37:44.388Z,12.19
2023-05-01T01:41:12.104Z,12.18
2023-05-01T01:44:23.336Z,12.08
2023-05-01T01:47:32.069Z,11.96
2023-05-01T01:50:38.636Z,11.97
2023-05-01T01:53:46.025Z,11.89
2023-05-01T01:56:50.483Z,11.85
2023-05-01T01:59:54.470Z,11.79
2023-05-01T02:03:00.485Z,11.72
2023-05-01T02:06:05.961Z,11.63
2023-05-01T02:09:10.745Z,11.63
2023-05-01T02:12:16.906Z,11.65
2023-05-01T02:15:20.885Z,11.50
2023-05-01T02:18:24.703Z,11.47
2023-05-01T02:21:28.241Z,11.48
2023-05-01T02:24:33.324Z,11.44
2023-05-01T02:27:39.256Z,11.48
2023-05-01T02:30:42.255Z,11.42
2023-05-01T02:33:44.655Z,11.47
2023-05-01T02:36:47.432Z,11.41
2023-05-01T02:39:50.716Z,11.42
2023-05-01T02:42:54.101Z,11.46
2023-05-01T02:45:59.197Z,11.47
2023-05-01T02:49:03.574Z,11.47
2023-05-01T02:52:06.252Z,11.52
2023-05-01T02:55:09.352Z,11.55
2023-05-01T02:58:19.109Z,11.51
2023-05-01T03:01:21.946Z,11.61
2023-05-01T03:04:24.469Z,11.64
2023-05-01T03:07:34.951Z,11.67
2023-05-01T03:10:40.832Z,11.59
2023-05-01T03:13:43.884Z,11.73
2023-05-01T03:16:46.348Z,11.78
2023-05-01T03:19:49.711Z,11.66
2023-05-01T03:22:51.984Z,11.70
2023-05-01T03:25:54.983Z,11.47
2023-05-01T03:28:57.638Z,11.38
2023-05-01T03:32:01.103Z,11.24
2023-05-01T03:35:03.763Z,11.25
2023-05-01T03:38:07.090Z,11.13
2023-05-01T03:41:13.333Z,10.95
2023-05-01T03:44:18.668Z,10.94
2023-05-01T03:47:21.110Z,10.90
2023-05-01T03:50:23.893Z,10.86
2023-05-01T03:53:26.785Z,10.82
2023-05-01T03:56:35.525Z,10.82
2023-05-01T03:59:39.060Z,10.85
2023-05-01T04:02:42.521Z,10.77
2023-05-01T04:05:46.335Z,10.58
2023-05-01T04:08:48.818Z,10.63
2023-05-01T04:11:51.704Z,10.58
2023-05-01T04:14:54.159Z,10.51
2023-05-01T04:17:57.222Z,10.55
2023-05-01T04:20:59.761Z,10.44
2023-05-01T04:24:02.532Z,10.51
2023-05-01T04:27:05.988Z,10.48
2023-05-01T04:30:09.253Z,10.41
2023-05-01T04:33:11.925Z,10.43
2023-05-01T04:36:15.117Z,10.40
2023-05-01T04:39:19.303Z,10.41
2023-05-01T04:42:22.017Z,10.41
2023-05-01T04:45:24.914Z,10.34
2023-05-01T04:48:28.190Z,10.39
2023-05-01T04:51:31.156Z,10.38
2023-05-01T04:54:34.195Z,10.37
2023-05-01T04:57:36.983Z,10.47
2023-05-01T05:00:40.534Z,10.54
2023-05-01T05:03:43.415Z,10.66
2023-05-01T05:06:46.517Z,10.70
2023-05-01T05:09:49.503Z,10.72
2023-05-01T05:12:52.191Z,10.77
2023-05-01T05:15:55.013Z,10.73
2023-05-01T05:18:58.308Z,10.84
2023-05-01T05:22:04.316Z,10.89
2023-05-01T05:25:08.164Z,11.01
2023-05-01T05:28:10.802Z,10.97
2023-05-01T05:31:14.022Z,11.12
2023-05-01T05:34:16.357Z,11.19
2023-05-01T05:37:19.257Z,11.28
2023-05-01T05:40:22.968Z,11.35
2023-05-01T05:43:28.233Z,11.47
2023-05-01T05:46:31.528Z,11.56
2023-05-01T05:49:35.040Z,11.64
2023-05-01T05:52:37.694Z,11.73
2023-05-01T05:55:41.340Z,11.73
2023-05-01T05:58:44.091Z,11.88
2023-05-01T06:01:47.434Z,11.99
2023-05-01T06:04:50.636Z,12.10
2023-05-01T06:07:54.439Z,12.22
2023-05-01T06:10:58.977Z,12.32
2023-05-01T06:14:03.418Z,12.49
2023-05-01T06:17:06.326Z,12.93
2023-05-01T06:20:09.587Z,14.29
2023-05-01T06:23:13.949Z,15.25
2023-05-01T06:26:16.663Z,16.37
2023-05-01T06:29:20.096Z,16.64
2023-05-01T06:32:23.445Z,17.09
2023-05-01T06:35:26.230Z,17.44
2023-05-01T06:38:28.743Z,18.06
2023-05-01T06:41:32.722Z,18.47
2023-05-01T06:44:35.116Z,18.66
2023-05-01T06:47:37.940Z,19.15
2023-05-01T06:50:40.682Z,18.49
2023-05-01T06:53:43.761Z,18.71
2023-05-01T06:56:46.178Z,18.14
2023-05-01T06:59:49.111Z,18.52
2023-05-01T07:02:51.673Z,18.89
2023-05-01T07:05:55.304Z,19.46
2023-05-01T07:08:57.823Z,19.77
2023-05-01T07:12:00.713Z,19.59
2023-05-01T07:15:03.314Z,20.14
2023-05-01T07:18:06.308Z,20.26
2023-05-01T07:21:11.860Z,20.34
2023-05-01T07:24:14.616Z,20.87
2023-05-01T07:27:16.995Z,20.92
2023-05-01T07:30:20.464Z,21.39
2023-05-01T07:33:25.544Z,20.43
2023-05-01T07:36:28.591Z,20.07
2023-05-01T07:39:31.390Z,20.87
2023-05-01T07:42:34.141Z,20.98
2023-05-01T07:45:37.022Z,21.16
2023-05-01T07:48:40.050Z,21.71
2023-05-01T07:51:42.765Z,22.00
2023-05-01T07:54:51.142Z,22.70
2023-05-01T07:57:53.571Z,21.64
2023-05-01T08:00:56.395Z,21.87
2023-05-01T08:03:59.145Z,22.01
2023-05-01T08:07:01.583Z,21.73
2023-05-01T08:10:04.922Z,22.23
2023-05-01T08:13:07.824Z,22.66
2023-05-01T08:16:10.890Z,23.21
2023-05-01T08:19:13.478Z,22.97
2023-05-01T08:22:16.366Z,22.94
2023-05-01T08:25:18.749Z,23.70
2023-05-01T08:28:24.420Z,23.69
2023-05-01T08:31:26.905Z,22.94
2023-05-01T08:34:30.027Z,23.06
2023-05-01T08:37:32.482Z,23.27
2023-05-01T08:40:38.095Z,22.76
2023-05-01T08:43:41.138Z,23.01
2023-05-01T08:46:51.002Z,23.26
2023-05-01T08:49:54.750Z,22.41
2023-05-01T08:52:59.173Z,22.15
2023-05-01T08:56:06.034Z,22.12
2023-05-01T08:59:11.303Z,21.87
2023-05-01T09:02:16.123Z,23.05
2023-05-01T09:05:21.017Z,23.62
2023-05-01T09:08:23.841Z,24.15
2023-05-01T09:11:27.273Z,24.55
2023-05-01T09:14:31.742Z,24.01
2023-05-01T09:17:35.544Z,24.23
2023-05-01T09:20:38.480Z,24.12
2023-05-01T09:23:41.358Z,24.61
2023-05-01T09:26:43.831Z,24.35
2023-05-01T09:29:47.732Z,23.33
2023-05-01T09:33:07.885Z,22.25
2023-05-01T09:36:17.443Z,22.51
2023-05-01T09:39:23.854Z,22.80
2023-05-01T09:42:26.512Z,23.36
2023-05-01T09:45:31.168Z,24.10
2023-05-01T09:48:35.926Z,23.96
2023-05-01T09:51:38.694Z,24.15
2023-05-01T09:54:41.817Z,24.31
2023-05-01T09:57:46.278Z,24.38
2023-05-01T10:00:52.130Z,24.15
2023-05-01T10:03:56.733Z,24.05
2023-05-01T10:07:16.268Z,23.37
2023-05-01T10:16:41.481Z,24.04
2023-05-01T10:19:44.417Z,24.06
2023-05-01T10:22:47.243Z,23.16
2023-05-01T10:25:52.445Z,23.78
2023-05-01T10:28:58.861Z,23.99
2023-05-01T10:32:04.469Z,23.64
2023-05-01T10:35:21.697Z,24.12
2023-05-01T10:38:31.361Z,24.37
2023-05-01T10:41:58.986Z,23.96
2023-05-01T10:45:39.562Z,24.46
2023-05-01T10:48:44.817Z,24.44
2023-05-01T10:52:07.915Z,23.93
2023-05-01T10:55:33.486Z,22.96
2023-05-01T10:58:39.239Z,22.60
2023-05-01T11:01:47.685Z,22.84
2023-05-01T11:04:51.766Z,23.27
2023-05-01T11:08:32.587Z,23.41
2023-05-01T11:11:35.394Z,23.94
2023-05-01T11:15:03.166Z,24.37
2023-05-01T11:18:07.306Z,23.35
2023-05-01T11:21:09.946Z,23.53
2023-05-01T11:24:13.000Z,23.63
2023-05-01T11:27:15.923Z,22.97
2023-05-01T11:30:19.218Z,23.06
2023-05-01T11:33:23.343Z,23.33
2023-05-01T11:36:27.530Z,23.10
2023-05-01T11:39:30.437Z,22.94
2023-05-01T11:42:33.211Z,23.27
2023-05-01T11:45:37.072Z,22.80
2023-05-01T11:48:40.198Z,22.47
2023-05-01T11:51:42.678Z,22.38
2023-05-01T11:54:48.759Z,22.24
2023-05-01T11:57:53.596Z,22.20
2023-05-01T12:00:56.503Z,21.35
2023-05-01T12:03:59.380Z,22.05
2023-05-01T12:07:02.122Z,22.32
2023-05-01T12:10:05.292Z,22.70
2023-05-01T12:13:09.758Z,21.35
2023-05-01T12:16:13.616Z,21.16
2023-05-01T12:19:17.553Z,21.81
2023-05-01T12:22:20.467Z,22.68
2023-05-01T12:25:29.692Z,22.84
2023-05-01T12:28:32.652Z,22.72
2023-05-01T12:31:36.872Z,22.96
2023-05-01T12:34:40.216Z,22.98
2023-05-01T12:37:43.424Z,22.16
2023-05-01T12:40:57.707Z,22.36
2023-05-01T12:44:00.414Z,22.78
2023-05-01T12:47:05.260Z,22.79
2023-05-01T12:50:08.404Z,22.27
2023-05-01T12:53:11.383Z,22.15
2023-05-01T12:56:24.883Z,22.42
2023-05-01T12:59:28.727Z,21.82
2023-05-01T13:02:33.224Z,21.77
2023-05-01T13:05:36.152Z,21.80
2023-05-01T13:08:40.211Z,21.97
2023-05-01T13:11:43.349Z,21.68
2023-05-01T13:14:46.578Z,22.54
2023-05-01T13:17:49.513Z,22.23
2023-05-01T13:23:15.987Z,22.73
2023-05-01T13:26:36.062Z,22.73
2023-05-01T13:29:39.579Z,22.94
2023-05-01T13:32:42.502Z,22.97
2023-05-01T13:35:45.165Z,23.28
2023-05-01T13:38:51.081Z,22.18
2023-05-01T13:41:54.033Z,22.77
